createdAt,value
2019-02-14T00:00:46.140Z,0.00
2019-02-14T00:01:46.137Z,0.00
2019-02-14T00:02:46.043Z,0.00
2019-02-14T00:03:45.982Z,0.00
2019-02-14T00:04:46.799Z,0.00
2019-02-14T00:05:45.917Z,0.00
2019-02-14T00:06:46.801Z,0.00
2019-02-14T00:07:45.873Z,0.00
2019-02-14T00:08:45.820Z,0.00
2019-02-14T00:09:45.787Z,0.00
2019-02-14T00:10:45.758Z,0.00
2019-02-14T00:11:45.728Z,0.00
2019-02-14T00:12:45.717Z,0.00
2019-02-14T00:13:45.660Z,0.00
2019-02-14T00:14:45.625Z,0.00
2019-02-14T00:15:45.717Z,0.00
2019-02-14T00:16:45.577Z,0.00
2019-02-14T00:17:45.559Z,0.00
2019-02-14T00:18:45.506Z,0.00
2019-02-14T00:19:45.468Z,0.00
2019-02-14T00:20:46.303Z,0.00
2019-02-14T00:21:45.401Z,0.00
2019-02-14T00:22:45.835Z,0.00
2019-02-14T00:23:45.334Z,0.00
2019-02-14T00:24:45.307Z,0.00
2019-02-14T00:25:45.278Z,0.00
2019-02-14T00:26:45.250Z,0.00
2019-02-14T00:27:45.333Z,0.00
2019-02-14T00:28:45.178Z,0.00
2019-02-14T00:29:45.199Z,0.00
2019-02-14T00:30:45.805Z,0.00
2019-02-14T00:31:45.081Z,0.00
2019-02-14T00:32:45.087Z,0.00
2019-02-14T00:33:45.940Z,0.00
2019-02-14T00:34:44.993Z,0.00
2019-02-14T00:35:44.965Z,0.00
2019-02-14T00:36:45.801Z,0.00
2019-02-14T00:37:44.894Z,0.00
2019-02-14T00:38:45.337Z,0.00
2019-02-14T00:39:44.826Z,0.00
2019-02-14T00:40:44.795Z,0.00
2019-02-14T00:41:45.304Z,0.00
2019-02-14T00:42:44.731Z,0.00
2019-02-14T00:43:44.721Z,0.00
2019-02-14T00:44:45.304Z,0.00
2019-02-14T00:45:44.641Z,0.00
2019-02-14T00:46:45.310Z,0.00
2019-02-14T00:47:44.569Z,0.00
2019-02-14T00:48:44.568Z,0.00
2019-02-14T00:49:44.512Z,0.00
2019-02-14T00:50:45.387Z,0.00
2019-02-14T00:51:44.445Z,0.00
2019-02-14T00:52:44.411Z,0.00
2019-02-14T00:53:45.211Z,0.00
2019-02-14T00:54:44.351Z,0.00
2019-02-14T00:55:45.316Z,0.00
2019-02-14T00:56:44.283Z,0.00
2019-02-14T00:57:44.250Z,0.00
2019-02-14T00:58:44.244Z,0.00
2019-02-14T00:59:44.196Z,0.00
2019-02-14T01:00:44.155Z,0.00
2019-02-14T01:01:44.133Z,0.00
2019-02-14T01:02:44.099Z,0.00
2019-02-14T01:03:44.346Z,0.00
2019-02-14T01:04:44.166Z,0.00
2019-02-14T01:05:43.993Z,0.00
2019-02-14T01:06:43.979Z,0.00
2019-02-14T01:07:44.809Z,0.00
2019-02-14T01:08:43.971Z,0.00
2019-02-14T01:09:43.864Z,0.00
2019-02-14T01:10:43.835Z,0.00
2019-02-14T01:11:43.802Z,0.00
2019-02-14T01:12:43.770Z,0.00
2019-02-14T01:13:43.763Z,0.00
2019-02-14T01:14:44.312Z,0.00
2019-02-14T01:15:43.673Z,0.00
2019-02-14T01:16:43.641Z,0.00
2019-02-14T01:17:43.607Z,0.00
2019-02-14T01:18:43.609Z,0.00
2019-02-14T01:19:43.543Z,0.00
2019-02-14T01:20:44.325Z,0.00
2019-02-14T01:21:43.483Z,0.00
2019-02-14T01:22:43.453Z,0.00
2019-02-14T01:23:43.442Z,0.00
2019-02-14T01:24:43.382Z,0.00
2019-02-14T01:25:43.350Z,0.00
2019-02-14T01:26:43.323Z,0.00
2019-02-14T01:27:43.343Z,0.00
2019-02-14T01:28:43.284Z,0.00
2019-02-14T01:29:43.225Z,0.00
2019-02-14T01:30:43.812Z,0.00
2019-02-14T01:31:43.165Z,0.00
2019-02-14T01:32:43.127Z,0.00
2019-02-14T01:33:43.128Z,0.00
2019-02-14T01:34:43.813Z,0.00
2019-02-14T01:35:43.814Z,0.00
2019-02-14T01:36:43.866Z,0.00
2019-02-14T01:37:43.813Z,0.00
2019-02-14T01:38:42.968Z,0.00
2019-02-14T01:39:42.909Z,0.00
2019-02-14T01:40:43.811Z,0.00
2019-02-14T01:41:42.840Z,0.00
2019-02-14T01:42:43.313Z,0.00
2019-02-14T01:43:42.833Z,0.00
2019-02-14T01:44:43.341Z,0.00
2019-02-14T01:45:42.714Z,0.00
2019-02-14T01:46:42.679Z,0.00
2019-02-14T01:47:42.652Z,0.00
2019-02-14T01:48:42.635Z,0.00
2019-02-14T01:49:42.582Z,0.00
2019-02-14T01:50:43.375Z,0.00
2019-02-14T01:51:42.528Z,0.00
2019-02-14T01:52:42.489Z,0.00
2019-02-14T01:53:42.479Z,0.00
2019-02-14T01:54:42.421Z,0.00
2019-02-14T01:55:42.404Z,0.00
2019-02-14T01:56:42.359Z,0.00
2019-02-14T01:57:42.328Z,0.00
2019-02-14T01:58:42.294Z,0.00
2019-02-14T01:59:42.289Z,0.00
2019-02-14T02:00:42.352Z,0.00
2019-02-14T02:01:42.206Z,0.00
2019-02-14T02:02:42.165Z,0.00
2019-02-14T02:03:42.134Z,0.00
2019-02-14T02:04:42.129Z,0.00
2019-02-14T02:05:50.415Z,0.00
2019-02-14T02:06:42.039Z,0.00
2019-02-14T02:07:42.008Z,0.00
2019-02-14T02:08:41.976Z,0.00
2019-02-14T02:09:41.984Z,0.00
2019-02-14T02:10:41.916Z,0.00
2019-02-14T02:11:41.879Z,0.00
2019-02-14T02:12:41.845Z,0.00
2019-02-14T02:13:41.822Z,0.00
2019-02-14T02:14:41.814Z,0.00
2019-02-14T02:15:41.759Z,0.00
2019-02-14T02:16:41.725Z,0.00
2019-02-14T02:17:42.227Z,0.00
2019-02-14T02:18:41.657Z,0.00
2019-02-14T02:19:41.649Z,0.00
2019-02-14T02:20:41.595Z,0.00
2019-02-14T02:21:41.627Z,0.00
2019-02-14T02:22:41.534Z,0.00
2019-02-14T02:23:41.499Z,0.00
2019-02-14T02:24:41.494Z,0.00
2019-02-14T02:25:41.434Z,0.00
2019-02-14T02:26:41.404Z,0.00
2019-02-14T02:27:41.368Z,0.00
2019-02-14T02:28:41.338Z,0.00
2019-02-14T02:29:41.330Z,0.00
2019-02-14T02:30:43.821Z,0.00
2019-02-14T02:31:41.729Z,0.00
2019-02-14T02:32:41.214Z,0.00
2019-02-14T02:33:41.186Z,0.00
2019-02-14T02:34:41.168Z,0.00
2019-02-14T02:35:41.115Z,0.00
2019-02-14T02:36:41.081Z,0.00
2019-02-14T02:37:41.049Z,0.00
2019-02-14T02:38:41.018Z,0.00
2019-02-14T02:39:41.018Z,0.00
2019-02-14T02:40:40.961Z,0.00
2019-02-14T02:41:40.921Z,0.00
2019-02-14T02:42:41.042Z,0.00
2019-02-14T02:43:40.858Z,0.00
2019-02-14T02:44:40.847Z,0.00
2019-02-14T02:45:40.797Z,0.00
2019-02-14T02:46:40.765Z,0.00
2019-02-14T02:47:40.734Z,0.00
2019-02-14T02:48:40.699Z,0.00
2019-02-14T02:49:40.690Z,0.00
2019-02-14T02:50:40.638Z,0.00
2019-02-14T02:51:40.605Z,0.00
2019-02-14T02:52:40.680Z,0.00
2019-02-14T02:53:40.540Z,0.00
2019-02-14T02:54:40.720Z,0.00
2019-02-14T02:55:40.475Z,0.00
2019-02-14T02:56:40.445Z,0.00
2019-02-14T02:57:40.414Z,0.00
2019-02-14T02:58:40.384Z,0.00
2019-02-14T02:59:40.371Z,0.00
2019-02-14T03:00:40.323Z,0.00
2019-02-14T03:01:40.288Z,0.00
2019-02-14T03:02:40.258Z,0.00
2019-02-14T03:03:40.223Z,0.00
2019-02-14T03:04:40.228Z,0.00
2019-02-14T03:05:40.824Z,0.00
2019-02-14T03:06:40.843Z,0.00
2019-02-14T03:07:40.180Z,0.00
2019-02-14T03:08:40.064Z,0.00
2019-02-14T03:09:40.033Z,0.00
2019-02-14T03:10:40.422Z,0.00
2019-02-14T03:11:39.970Z,0.00
2019-02-14T03:12:39.936Z,0.00
2019-02-14T03:13:39.905Z,0.00
2019-02-14T03:14:40.825Z,0.00
2019-02-14T03:15:39.865Z,0.00
2019-02-14T03:16:39.806Z,0.00
2019-02-14T03:17:39.780Z,0.00
2019-02-14T03:18:39.745Z,0.00
2019-02-14T03:19:39.719Z,0.00
2019-02-14T03:20:39.703Z,0.00
2019-02-14T03:21:39.649Z,0.00
2019-02-14T03:22:39.619Z,0.00
2019-02-14T03:23:39.588Z,0.00
2019-02-14T03:24:41.235Z,0.00
2019-02-14T03:25:39.549Z,0.00
2019-02-14T03:26:39.493Z,0.00
2019-02-14T03:27:39.463Z,0.00
2019-02-14T03:28:39.432Z,0.00
2019-02-14T03:29:39.399Z,0.00
2019-02-14T03:30:39.859Z,0.00
2019-02-14T03:31:39.339Z,0.00
2019-02-14T03:32:39.830Z,0.00
2019-02-14T03:33:39.268Z,0.00
2019-02-14T03:34:39.825Z,0.00
2019-02-14T03:35:39.375Z,0.00
2019-02-14T03:36:40.778Z,0.00
2019-02-14T03:37:39.171Z,0.00
2019-02-14T03:38:39.844Z,0.00
2019-02-14T03:39:39.080Z,0.00
2019-02-14T03:40:39.081Z,0.00
2019-02-14T03:41:39.017Z,0.00
2019-02-14T03:42:38.991Z,0.00
2019-02-14T03:43:38.953Z,0.00
2019-02-14T03:44:39.831Z,0.00
2019-02-14T03:45:39.363Z,0.00
2019-02-14T03:46:39.831Z,0.00
2019-02-14T03:47:39.332Z,0.00
2019-02-14T03:48:39.735Z,0.00
2019-02-14T03:49:38.762Z,0.00
2019-02-14T03:50:38.756Z,0.00
2019-02-14T03:51:40.671Z,0.00
2019-02-14T03:52:38.673Z,0.00
2019-02-14T03:53:38.641Z,0.00
2019-02-14T03:54:39.331Z,0.00
2019-02-14T03:55:38.880Z,0.00
2019-02-14T03:56:38.544Z,0.00
2019-02-14T03:57:39.330Z,0.00
2019-02-14T03:58:38.485Z,0.00
2019-02-14T03:59:38.444Z,0.00
2019-02-14T04:00:39.330Z,0.00
2019-02-14T04:01:38.406Z,0.00
2019-02-14T04:02:38.359Z,0.00
2019-02-14T04:03:38.322Z,0.00
2019-02-14T04:04:38.833Z,0.00
2019-02-14T04:05:38.831Z,0.00
2019-02-14T04:06:38.371Z,0.00
2019-02-14T04:07:38.194Z,0.00
2019-02-14T04:08:38.839Z,0.00
2019-02-14T04:09:38.138Z,0.00
2019-02-14T04:10:38.101Z,0.00
2019-02-14T04:11:38.087Z,0.00
2019-02-14T04:12:38.034Z,0.00
2019-02-14T04:13:37.999Z,0.00
2019-02-14T04:14:38.831Z,0.00
2019-02-14T04:15:37.939Z,0.00
2019-02-14T04:16:37.927Z,0.00
2019-02-14T04:17:37.874Z,0.00
2019-02-14T04:18:38.831Z,0.00
2019-02-14T04:19:37.888Z,0.00
2019-02-14T04:20:37.776Z,0.00
2019-02-14T04:21:37.867Z,0.00
2019-02-14T04:22:37.720Z,0.00
2019-02-14T04:23:38.336Z,0.00
2019-02-14T04:24:38.333Z,0.00
2019-02-14T04:25:37.623Z,0.00
2019-02-14T04:26:37.867Z,0.00
2019-02-14T04:27:37.555Z,0.00
2019-02-14T04:28:37.525Z,0.00
2019-02-14T04:29:37.503Z,0.00
2019-02-14T04:30:37.459Z,0.00
2019-02-14T04:31:37.459Z,0.00
2019-02-14T04:32:37.396Z,0.00
2019-02-14T04:33:37.365Z,0.00
2019-02-14T04:34:37.334Z,0.00
2019-02-14T04:35:37.319Z,0.00
2019-02-14T04:36:37.380Z,0.00
2019-02-14T04:37:37.242Z,0.00
2019-02-14T04:38:37.206Z,0.00
2019-02-14T04:39:37.773Z,0.00
2019-02-14T04:40:37.143Z,0.00
2019-02-14T04:41:37.386Z,0.00
2019-02-14T04:42:37.076Z,0.00
2019-02-14T04:43:37.836Z,0.00
2019-02-14T04:44:37.012Z,0.00
2019-02-14T04:45:36.981Z,0.00
2019-02-14T04:46:36.981Z,0.00
2019-02-14T04:47:36.913Z,0.00
2019-02-14T04:48:36.884Z,0.00
2019-02-14T04:49:36.850Z,0.00
2019-02-14T04:50:36.821Z,0.00
2019-02-14T04:51:36.794Z,0.00
2019-02-14T04:52:36.778Z,0.00
2019-02-14T04:53:37.338Z,0.00
2019-02-14T04:54:36.692Z,0.00
2019-02-14T04:55:36.664Z,0.00
2019-02-14T04:56:36.629Z,0.00
2019-02-14T04:57:36.616Z,0.00
2019-02-14T04:58:36.565Z,0.00
2019-02-14T04:59:36.533Z,0.00
2019-02-14T05:00:36.497Z,0.00
2019-02-14T05:01:36.465Z,0.00
2019-02-14T05:02:36.462Z,0.00
2019-02-14T05:03:36.404Z,0.00
2019-02-14T05:04:36.368Z,0.00
2019-02-14T05:05:36.842Z,0.00
2019-02-14T05:06:44.100Z,0.00
2019-02-14T05:07:36.297Z,0.00
2019-02-14T05:08:36.243Z,0.00
2019-02-14T05:09:36.209Z,0.00
2019-02-14T05:10:36.188Z,0.00
2019-02-14T05:11:36.842Z,0.00
2019-02-14T05:12:36.140Z,0.00
2019-02-14T05:13:36.078Z,0.00
2019-02-14T05:14:36.050Z,0.00
2019-02-14T05:15:38.750Z,0.00
2019-02-14T05:16:35.983Z,0.00
2019-02-14T05:17:35.977Z,0.00
2019-02-14T05:18:36.846Z,0.00
2019-02-14T05:19:35.888Z,0.00
2019-02-14T05:20:35.863Z,0.00
2019-02-14T05:21:35.856Z,0.00
2019-02-14T05:22:35.822Z,0.00
2019-02-14T05:23:35.760Z,0.00
2019-02-14T05:24:36.348Z,0.00
2019-02-14T05:25:36.343Z,0.00
2019-02-14T05:26:35.678Z,0.00
2019-02-14T05:27:35.657Z,0.00
2019-02-14T05:28:35.609Z,0.00
2019-02-14T05:29:35.568Z,0.00
2019-02-14T05:30:35.545Z,0.00
2019-02-14T05:31:35.502Z,0.00
2019-02-14T05:32:35.494Z,0.00
2019-02-14T05:33:35.443Z,0.00
2019-02-14T05:34:35.418Z,0.00
2019-02-14T05:35:35.373Z,0.00
2019-02-14T05:36:36.251Z,0.00
2019-02-14T05:37:35.337Z,0.00
2019-02-14T05:38:35.288Z,0.00
2019-02-14T05:39:35.249Z,0.00
2019-02-14T05:40:35.215Z,0.00
2019-02-14T05:41:35.846Z,0.00
2019-02-14T05:42:35.224Z,0.00
2019-02-14T05:43:35.122Z,0.00
2019-02-14T05:44:35.087Z,0.00
2019-02-14T05:45:35.872Z,0.00
2019-02-14T05:46:35.029Z,0.00
2019-02-14T05:47:35.022Z,0.00
2019-02-14T05:48:34.970Z,0.00
2019-02-14T05:49:34.930Z,0.00
2019-02-14T05:50:34.903Z,0.00
2019-02-14T05:51:37.898Z,0.00
2019-02-14T05:52:34.864Z,0.00
2019-02-14T05:53:34.800Z,0.00
2019-02-14T05:54:34.778Z,0.00
2019-02-14T05:55:34.739Z,4.00
2019-02-14T05:56:34.713Z,4.00
2019-02-14T05:57:34.705Z,0.00
2019-02-14T05:58:34.673Z,4.00
2019-02-14T05:59:34.615Z,4.00
2019-02-14T06:00:34.585Z,4.00
2019-02-14T06:01:35.345Z,8.00
2019-02-14T06:02:34.542Z,4.00
2019-02-14T06:03:34.484Z,4.00
2019-02-14T06:04:34.458Z,8.00
2019-02-14T06:05:34.426Z,8.00
2019-02-14T06:06:34.410Z,8.00
2019-02-14T06:07:34.390Z,8.00
2019-02-14T06:08:34.327Z,12.00
2019-02-14T06:09:34.850Z,16.00
2019-02-14T06:10:34.271Z,16.00
2019-02-14T06:11:34.261Z,16.00
2019-02-14T06:12:34.260Z,20.00
2019-02-14T06:13:34.170Z,24.00
2019-02-14T06:14:34.136Z,28.00
2019-02-14T06:15:34.112Z,32.00
2019-02-14T06:16:34.082Z,32.00
2019-02-14T06:17:34.085Z,36.00
2019-02-14T06:18:34.010Z,44.00
2019-02-14T06:19:33.978Z,48.00
2019-02-14T06:20:33.949Z,52.00
2019-02-14T06:21:33.917Z,64.00
2019-02-14T06:22:33.892Z,76.00
2019-02-14T06:23:33.875Z,88.00
2019-02-14T06:24:34.353Z,104.00
2019-02-14T06:25:33.789Z,120.00
2019-02-14T06:26:33.759Z,136.00
2019-02-14T06:27:33.724Z,140.00
2019-02-14T06:28:37.274Z,148.00
2019-02-14T06:29:34.353Z,152.00
2019-02-14T06:30:33.639Z,152.00
2019-02-14T06:31:33.601Z,156.00
2019-02-14T06:32:34.365Z,164.00
2019-02-14T06:33:33.578Z,176.00
2019-02-14T06:34:33.504Z,192.00
2019-02-14T06:35:33.472Z,212.00
2019-02-14T06:36:33.441Z,240.00
2019-02-14T06:37:33.413Z,264.00
2019-02-14T06:38:33.403Z,276.00
2019-02-14T06:39:33.859Z,284.00
2019-02-14T06:40:33.330Z,304.00
2019-02-14T06:41:33.860Z,332.00
2019-02-14T06:42:33.251Z,356.00
2019-02-14T06:43:33.242Z,392.00
2019-02-14T06:44:33.193Z,436.00
2019-02-14T06:45:33.155Z,472.00
2019-02-14T06:46:33.851Z,500.00
2019-02-14T06:47:33.096Z,524.00
2019-02-14T06:48:33.084Z,552.00
2019-02-14T06:49:33.026Z,584.00
2019-02-14T06:50:34.985Z,588.00
2019-02-14T06:51:32.967Z,584.00
2019-02-14T06:52:32.934Z,596.00
2019-02-14T06:53:32.927Z,624.00
2019-02-14T06:54:32.873Z,660.00
2019-02-14T06:55:32.839Z,684.00
2019-02-14T06:56:32.806Z,696.00
2019-02-14T06:57:32.790Z,720.00
2019-02-14T06:58:32.770Z,784.00
2019-02-14T06:59:32.709Z,888.00
2019-02-14T07:00:32.685Z,992.00
2019-02-14T07:01:32.649Z,1064.00
2019-02-14T07:02:32.618Z,1124.00
2019-02-14T07:03:32.612Z,1108.00
2019-02-14T07:04:32.554Z,1024.00
2019-02-14T07:05:32.522Z,944.00
2019-02-14T07:06:32.490Z,912.00
2019-02-14T07:07:32.459Z,900.00
2019-02-14T07:08:32.448Z,900.00
2019-02-14T07:09:32.397Z,920.00
2019-02-14T07:10:33.362Z,960.00
2019-02-14T07:11:32.358Z,1016.00
2019-02-14T07:12:32.346Z,1092.00
2019-02-14T07:13:32.297Z,1164.00
2019-02-14T07:14:32.238Z,1212.00
2019-02-14T07:15:32.210Z,1280.00
2019-02-14T07:16:32.914Z,1396.00
2019-02-14T07:17:32.153Z,1520.00
2019-02-14T07:18:32.133Z,1648.00
2019-02-14T07:19:32.080Z,1776.00
2019-02-14T07:20:32.136Z,1900.00
2019-02-14T07:21:32.022Z,2040.00
2019-02-14T07:22:31.985Z,2180.00
2019-02-14T07:23:31.983Z,2320.00
2019-02-14T07:24:31.923Z,2408.00
2019-02-14T07:25:31.893Z,2436.00
2019-02-14T07:26:31.865Z,2436.00
2019-02-14T07:27:31.833Z,2440.00
2019-02-14T07:28:31.839Z,2476.00
2019-02-14T07:29:31.770Z,2468.00
2019-02-14T07:30:31.738Z,2440.00
2019-02-14T07:31:31.700Z,2556.00
2019-02-14T07:32:31.681Z,2628.00
2019-02-14T07:33:31.665Z,2880.00
2019-02-14T07:34:31.609Z,3160.00
2019-02-14T07:35:31.590Z,3296.00
2019-02-14T07:36:31.548Z,3360.00
2019-02-14T07:37:31.523Z,3516.00
2019-02-14T07:38:31.510Z,3548.00
2019-02-14T07:39:31.461Z,3436.00
2019-02-14T07:40:31.426Z,3504.00
2019-02-14T07:41:31.394Z,3368.00
2019-02-14T07:42:31.403Z,2800.00
2019-02-14T07:43:31.328Z,2612.00
2019-02-14T07:44:31.320Z,2360.00
2019-02-14T07:45:31.274Z,2300.00
2019-02-14T07:46:31.238Z,2112.00
2019-02-14T07:47:31.206Z,2076.00
2019-02-14T07:48:31.170Z,2128.00
2019-02-14T07:49:34.769Z,2072.00
2019-02-14T07:50:31.113Z,2024.00
2019-02-14T07:51:31.081Z,2028.00
2019-02-14T07:52:31.054Z,2044.00
2019-02-14T07:53:31.018Z,2032.00
2019-02-14T07:54:31.014Z,2092.00
2019-02-14T07:55:30.959Z,2252.00
2019-02-14T07:56:30.925Z,2448.00
2019-02-14T07:57:31.864Z,2724.00
2019-02-14T07:58:30.863Z,3136.00
2019-02-14T07:59:36.778Z,3012.00
2019-02-14T08:00:31.362Z,3008.00
2019-02-14T08:01:31.363Z,3160.00
2019-02-14T08:02:31.368Z,3420.00
2019-02-14T08:03:30.707Z,3724.00
2019-02-14T08:04:30.708Z,3996.00
2019-02-14T08:05:30.647Z,4208.00
2019-02-14T08:06:30.618Z,4344.00
2019-02-14T08:07:36.032Z,4360.00
2019-02-14T08:08:30.554Z,4356.00
2019-02-14T08:09:30.550Z,4460.00
2019-02-14T08:10:30.491Z,5104.00
2019-02-14T08:11:30.471Z,5920.00
2019-02-14T08:12:30.429Z,5724.00
2019-02-14T08:13:30.397Z,5384.00
2019-02-14T08:14:30.391Z,4920.00
2019-02-14T08:15:30.337Z,4840.00
2019-02-14T08:16:30.303Z,5160.00
2019-02-14T08:17:30.280Z,5456.00
2019-02-14T08:18:30.244Z,5432.00
2019-02-14T08:19:30.237Z,5440.00
2019-02-14T08:20:30.185Z,5312.00
2019-02-14T08:21:30.150Z,5124.00
2019-02-14T08:22:30.124Z,5200.00
2019-02-14T08:23:30.100Z,5308.00
2019-02-14T08:24:30.407Z,5284.00
2019-02-14T08:25:30.031Z,5296.00
2019-02-14T08:26:30.004Z,5464.00
2019-02-14T08:27:29.970Z,5128.00
2019-02-14T08:28:29.942Z,4700.00
2019-02-14T08:29:29.933Z,4580.00
2019-02-14T08:30:29.876Z,4760.00
2019-02-14T08:31:29.845Z,4984.00
2019-02-14T08:32:29.821Z,5028.00
2019-02-14T08:33:29.799Z,4976.00
2019-02-14T08:34:29.781Z,4904.00
2019-02-14T08:35:29.731Z,5016.00
2019-02-14T08:36:29.694Z,5332.00
2019-02-14T08:37:29.666Z,5364.00
2019-02-14T08:38:29.641Z,4932.00
2019-02-14T08:39:29.628Z,4860.00
2019-02-14T08:40:29.574Z,4972.00
2019-02-14T08:41:29.542Z,5180.00
2019-02-14T08:42:29.512Z,5188.00
2019-02-14T08:43:29.479Z,5056.00
2019-02-14T08:44:29.486Z,4992.00
2019-02-14T08:45:29.422Z,5228.00
2019-02-14T08:46:29.391Z,5644.00
2019-02-14T08:47:29.364Z,5848.00
2019-02-14T08:48:29.332Z,5648.00
2019-02-14T08:49:29.327Z,4984.00
2019-02-14T08:50:29.269Z,4452.00
2019-02-14T08:51:29.235Z,4092.00
2019-02-14T08:52:29.207Z,3856.00
2019-02-14T08:53:29.188Z,3980.00
2019-02-14T08:54:29.170Z,4252.00
2019-02-14T08:55:29.152Z,4080.00
2019-02-14T08:56:29.089Z,3916.00
2019-02-14T08:57:29.055Z,3820.00
2019-02-14T08:58:29.779Z,3764.00
2019-02-14T08:59:29.020Z,3896.00
2019-02-14T09:00:28.967Z,3972.00
2019-02-14T09:01:29.890Z,4200.00
2019-02-14T09:02:28.916Z,4532.00
2019-02-14T09:03:29.444Z,4700.00
2019-02-14T09:04:28.864Z,4676.00
2019-02-14T09:05:29.406Z,4496.00
2019-02-14T09:06:29.375Z,4264.00
2019-02-14T09:07:28.753Z,4128.00
2019-02-14T09:08:29.377Z,4120.00
2019-02-14T09:09:28.756Z,4144.00
2019-02-14T09:10:28.678Z,4160.00
2019-02-14T09:11:28.631Z,4208.00
2019-02-14T09:12:28.590Z,4200.00
2019-02-14T09:13:29.381Z,4132.00
2019-02-14T09:14:28.544Z,4032.00
2019-02-14T09:15:28.524Z,4008.00
2019-02-14T09:16:28.617Z,4048.00
2019-02-14T09:17:28.461Z,4056.00
2019-02-14T09:18:28.409Z,4040.00
2019-02-14T09:19:28.381Z,4060.00
2019-02-14T09:20:28.436Z,4036.00
2019-02-14T09:21:28.324Z,4020.00
2019-02-14T09:22:28.284Z,4000.00
2019-02-14T09:23:28.258Z,3992.00
2019-02-14T09:24:28.219Z,3992.00
2019-02-14T09:25:28.249Z,3996.00
2019-02-14T09:26:28.178Z,4000.00
2019-02-14T09:27:28.125Z,4004.00
2019-02-14T09:28:28.882Z,3988.00
2019-02-14T09:29:28.065Z,3980.00
2019-02-14T09:30:28.413Z,3984.00
2019-02-14T09:31:27.997Z,3984.00
2019-02-14T09:32:27.966Z,4000.00
2019-02-14T09:33:28.877Z,3996.00
2019-02-14T09:34:27.931Z,3996.00
2019-02-14T09:35:27.912Z,3996.00
2019-02-14T09:36:27.842Z,3988.00
2019-02-14T09:37:27.811Z,4000.00
2019-02-14T09:38:27.775Z,3996.00
2019-02-14T09:39:27.746Z,4008.00
2019-02-14T09:40:27.734Z,4008.00
2019-02-14T09:41:27.694Z,4020.00
2019-02-14T09:42:29.156Z,4040.00
2019-02-14T09:43:29.764Z,4056.00
2019-02-14T09:44:27.589Z,4064.00
2019-02-14T09:45:27.582Z,4068.00
2019-02-14T09:46:27.538Z,4072.00
2019-02-14T09:47:27.496Z,4064.00
2019-02-14T09:48:28.385Z,4064.00
2019-02-14T09:49:27.440Z,4080.00
2019-02-14T09:50:27.466Z,4088.00
2019-02-14T09:51:27.885Z,4108.00
2019-02-14T09:52:27.345Z,4112.00
2019-02-14T09:53:27.881Z,4124.00
2019-02-14T09:54:27.267Z,4116.00
2019-02-14T09:55:27.269Z,4120.00
2019-02-14T09:56:27.204Z,4124.00
2019-02-14T09:57:27.197Z,4136.00
2019-02-14T09:58:27.155Z,4152.00
2019-02-14T09:59:27.120Z,4180.00
2019-02-14T10:00:27.105Z,4204.00
2019-02-14T10:01:27.050Z,4216.00
2019-02-14T10:02:27.019Z,4204.00
2019-02-14T10:03:26.999Z,4196.00
2019-02-14T10:04:27.003Z,4204.00
2019-02-14T10:05:27.905Z,4212.00
2019-02-14T10:06:36.181Z,4220.00
2019-02-14T10:07:26.885Z,4256.00
2019-02-14T10:08:26.852Z,4264.00
2019-02-14T10:09:26.797Z,4256.00
2019-02-14T10:10:26.796Z,4240.00
2019-02-14T10:11:26.756Z,4232.00
2019-02-14T10:12:26.707Z,4240.00
2019-02-14T10:13:26.670Z,4260.00
2019-02-14T10:14:28.291Z,4284.00
2019-02-14T10:15:26.630Z,4288.00
2019-02-14T10:16:27.383Z,4284.00
2019-02-14T10:17:26.542Z,4288.00
2019-02-14T10:18:26.509Z,4292.00
2019-02-14T10:19:28.593Z,4296.00
2019-02-14T10:20:26.931Z,4316.00
2019-02-14T10:21:26.411Z,4332.00
2019-02-14T10:22:26.387Z,4308.00
2019-02-14T10:23:26.890Z,4360.00
2019-02-14T10:24:26.321Z,4376.00
2019-02-14T10:25:26.288Z,4380.00
2019-02-14T10:26:26.893Z,4376.00
2019-02-14T10:27:26.890Z,4368.00
2019-02-14T10:28:26.249Z,4352.00
2019-02-14T10:29:26.168Z,4340.00
2019-02-14T10:30:26.792Z,4320.00
2019-02-14T10:31:26.127Z,4320.00
2019-02-14T10:32:26.896Z,4304.00
2019-02-14T10:33:32.796Z,4276.00
2019-02-14T10:34:26.887Z,4252.00
2019-02-14T10:35:26.889Z,4232.00
2019-02-14T10:36:26.038Z,4228.00
2019-02-14T10:37:25.922Z,4284.00
2019-02-14T10:38:25.885Z,4340.00
2019-02-14T10:39:26.391Z,4360.00
2019-02-14T10:40:25.839Z,4364.00
2019-02-14T10:41:25.811Z,4376.00
2019-02-14T10:42:25.758Z,4408.00
2019-02-14T10:43:26.390Z,4416.00
2019-02-14T10:44:25.710Z,4428.00
2019-02-14T10:45:25.662Z,4452.00
2019-02-14T10:46:25.656Z,4424.00
2019-02-14T10:47:26.392Z,4432.00
2019-02-14T10:48:25.580Z,4504.00
2019-02-14T10:49:26.581Z,4632.00
2019-02-14T10:50:25.505Z,4668.00
2019-02-14T10:51:25.511Z,4664.00
2019-02-14T10:52:25.451Z,4732.00
2019-02-14T10:53:26.392Z,4756.00
2019-02-14T10:54:25.895Z,4768.00
2019-02-14T10:55:25.346Z,4804.00
2019-02-14T10:56:27.911Z,4808.00
2019-02-14T10:57:25.423Z,4820.00
2019-02-14T10:58:25.259Z,4860.00
2019-02-14T10:59:25.891Z,4820.00
2019-02-14T11:00:25.201Z,4808.00
2019-02-14T11:01:25.167Z,4772.00
2019-02-14T11:02:25.431Z,4728.00
2019-02-14T11:03:25.100Z,4720.00
2019-02-14T11:04:25.071Z,4736.00
2019-02-14T11:05:25.040Z,4728.00
2019-02-14T11:06:25.012Z,4716.00
2019-02-14T11:07:25.100Z,4720.00
2019-02-14T11:08:31.604Z,4716.00
2019-02-14T11:09:24.911Z,4716.00
2019-02-14T11:10:25.406Z,4728.00
2019-02-14T11:11:24.852Z,4756.00
2019-02-14T11:12:24.825Z,4820.00
2019-02-14T11:13:24.813Z,4868.00
2019-02-14T11:14:29.116Z,4876.00
2019-02-14T11:15:24.742Z,4816.00
2019-02-14T11:16:25.398Z,4756.00
2019-02-14T11:17:24.671Z,4792.00
2019-02-14T11:18:24.663Z,4760.00
2019-02-14T11:19:24.612Z,4684.00
2019-02-14T11:20:24.594Z,4656.00
2019-02-14T11:21:24.550Z,4636.00
2019-02-14T11:22:24.514Z,4608.00
2019-02-14T11:23:24.528Z,4592.00
2019-02-14T11:24:27.399Z,4576.00
2019-02-14T11:25:24.418Z,4608.00
2019-02-14T11:26:24.897Z,4640.00
2019-02-14T11:27:24.357Z,4664.00
2019-02-14T11:28:24.393Z,4656.00
2019-02-14T11:29:24.299Z,4632.00
2019-02-14T11:30:24.896Z,4588.00
2019-02-14T11:31:24.256Z,4548.00
2019-02-14T11:32:24.210Z,4556.00
2019-02-14T11:33:24.229Z,4568.00
2019-02-14T11:34:24.180Z,4584.00
2019-02-14T11:35:24.113Z,4572.00
2019-02-14T11:36:24.902Z,4556.00
2019-02-14T11:37:25.875Z,4548.00
2019-02-14T11:38:24.018Z,4528.00
2019-02-14T11:39:24.023Z,4500.00
2019-02-14T11:40:23.960Z,4484.00
2019-02-14T11:41:23.928Z,4460.00
2019-02-14T11:42:24.408Z,4436.00
2019-02-14T11:43:23.871Z,4408.00
2019-02-14T11:44:23.943Z,4416.00
2019-02-14T11:45:23.810Z,4420.00
2019-02-14T11:46:27.304Z,4412.00
2019-02-14T11:47:23.771Z,4428.00
2019-02-14T11:48:23.716Z,4404.00
2019-02-14T11:49:23.703Z,4340.00
2019-02-14T11:50:23.652Z,4308.00
2019-02-14T11:51:23.618Z,4284.00
2019-02-14T11:52:23.594Z,4268.00
2019-02-14T11:53:23.569Z,4260.00
2019-02-14T11:54:23.576Z,4268.00
2019-02-14T11:55:23.501Z,4284.00
2019-02-14T11:56:23.479Z,4296.00
2019-02-14T11:57:23.437Z,4304.00
2019-02-14T11:58:23.403Z,4304.00
2019-02-14T11:59:23.435Z,4300.00
2019-02-14T12:00:23.456Z,4304.00
2019-02-14T12:01:23.315Z,4304.00
2019-02-14T12:02:23.817Z,4308.00
2019-02-14T12:03:23.251Z,4304.00
2019-02-14T12:04:23.247Z,4312.00
2019-02-14T12:05:23.211Z,4308.00
2019-02-14T12:06:23.905Z,4312.00
2019-02-14T12:07:23.144Z,4308.00
2019-02-14T12:08:23.100Z,4296.00
2019-02-14T12:09:23.100Z,4284.00
2019-02-14T12:10:23.912Z,4256.00
2019-02-14T12:11:23.921Z,4232.00
2019-02-14T12:12:25.082Z,4224.00
2019-02-14T12:13:22.963Z,4204.00
2019-02-14T12:14:22.939Z,4192.00
2019-02-14T12:15:23.541Z,4188.00
2019-02-14T12:16:28.309Z,4188.00
2019-02-14T12:17:22.826Z,4176.00
2019-02-14T12:18:24.113Z,4168.00
2019-02-14T12:19:22.805Z,4160.00
2019-02-14T12:20:23.417Z,4148.00
2019-02-14T12:21:22.705Z,4148.00
2019-02-14T12:22:23.409Z,4156.00
2019-02-14T12:23:22.645Z,4168.00
2019-02-14T12:24:22.633Z,4180.00
2019-02-14T12:25:22.579Z,4184.00
2019-02-14T12:26:22.557Z,4176.00
2019-02-14T12:27:23.484Z,4176.00
2019-02-14T12:28:22.485Z,4176.00
2019-02-14T12:29:22.475Z,4180.00
2019-02-14T12:30:22.451Z,4176.00
2019-02-14T12:31:22.913Z,4172.00
2019-02-14T12:32:22.367Z,4144.00
2019-02-14T12:33:22.344Z,4124.00
2019-02-14T12:34:22.306Z,4108.00
2019-02-14T12:35:22.302Z,4080.00
2019-02-14T12:36:22.248Z,4076.00
2019-02-14T12:37:22.222Z,4064.00
2019-02-14T12:38:22.181Z,4076.00
2019-02-14T12:39:22.188Z,4068.00
2019-02-14T12:40:22.454Z,4048.00
2019-02-14T12:41:22.107Z,4040.00